createdAt,value
2017-12-31T00:00:41.598Z,89.12
2017-12-31T00:01:41.596Z,88.55
2017-12-31T00:02:41.594Z,88.64
2017-12-31T00:03:41.592Z,88.84
2017-12-31T00:04:41.589Z,88.26
2017-12-31T00:05:41.586Z,88.55
2017-12-31T00:06:41.583Z,87.79
2017-12-31T00:07:41.581Z,87.40
2017-12-31T00:08:41.578Z,87.88
2017-12-31T00:09:41.583Z,87.21
2017-12-31T00:10:41.574Z,86.55
2017-12-31T00:11:41.572Z,86.45
2017-12-31T00:12:41.569Z,86.36
2017-12-31T00:13:41.567Z,86.45
2017-12-31T00:14:41.564Z,86.83
2017-12-31T00:15:41.562Z,86.16
2017-12-31T00:16:41.559Z,85.60
2017-12-31T00:17:41.556Z,85.78
2017-12-31T00:18:41.554Z,85.69
2017-12-31T00:19:41.551Z,85.69
2017-12-31T00:20:41.548Z,85.78
2017-12-31T00:21:41.548Z,85.78
2017-12-31T00:22:41.544Z,84.83
2017-12-31T00:23:41.541Z,84.55
2017-12-31T00:24:41.539Z,84.83
2017-12-31T00:25:41.539Z,84.45
2017-12-31T00:26:41.534Z,84.92
2017-12-31T00:27:41.531Z,83.88
2017-12-31T00:28:41.529Z,84.55
2017-12-31T00:29:41.526Z,84.74
2017-12-31T00:30:41.524Z,83.78
2017-12-31T00:31:41.521Z,82.92
2017-12-31T00:32:41.519Z,82.17
2017-12-31T00:33:41.517Z,82.92
2017-12-31T00:34:41.513Z,82.54
2017-12-31T00:35:41.512Z,82.54
2017-12-31T00:36:41.509Z,82.07
2017-12-31T00:37:41.507Z,82.07
2017-12-31T00:38:41.504Z,81.78
2017-12-31T00:39:41.502Z,81.21
2017-12-31T00:40:41.499Z,81.78
2017-12-31T00:41:41.497Z,81.59
2017-12-31T00:42:41.494Z,81.68
2017-12-31T00:43:41.491Z,80.98
2017-12-31T00:44:41.490Z,80.73
2017-12-31T00:45:41.487Z,80.31
2017-12-31T00:46:41.484Z,80.31
2017-12-31T00:47:41.483Z,79.93
2017-12-31T00:48:41.480Z,79.17
2017-12-31T00:49:41.478Z,79.02
2017-12-31T00:50:41.476Z,79.17
2017-12-31T00:51:41.474Z,78.50
2017-12-31T00:52:41.470Z,78.03
2017-12-31T00:53:41.468Z,77.74
2017-12-31T00:54:41.466Z,77.55
2017-12-31T00:55:41.464Z,77.45
2017-12-31T00:56:41.461Z,76.98
2017-12-31T00:57:41.459Z,76.50
2017-12-31T00:58:41.457Z,76.12
2017-12-31T00:59:41.480Z,76.50
2017-12-31T01:00:41.453Z,75.36
2017-12-31T01:01:41.451Z,75.45
2017-12-31T01:02:41.448Z,75.45
2017-12-31T01:03:41.445Z,74.88
2017-12-31T01:04:41.442Z,74.88
2017-12-31T01:05:41.440Z,74.60
2017-12-31T01:06:41.437Z,74.50
2017-12-31T01:07:41.435Z,74.40
2017-12-31T01:08:41.433Z,74.02
2017-12-31T01:09:41.431Z,74.02
2017-12-31T01:10:41.428Z,73.36
2017-12-31T01:11:41.428Z,72.78
2017-12-31T01:12:41.424Z,72.88
2017-12-31T01:13:41.421Z,73.17
2017-12-31T01:14:41.419Z,72.69
2017-12-31T01:15:41.419Z,72.69
2017-12-31T01:16:41.414Z,72.60
2017-12-31T01:17:41.412Z,72.78
2017-12-31T01:18:41.409Z,73.17
2017-12-31T01:19:41.407Z,73.39
2017-12-31T01:20:41.404Z,74.79
2017-12-31T01:21:41.403Z,74.50
2017-12-31T01:22:41.400Z,75.64
2017-12-31T01:23:41.398Z,77.17
2017-12-31T01:24:41.397Z,76.79
2017-12-31T01:25:41.392Z,77.17
2017-12-31T01:26:41.389Z,77.26
2017-12-31T01:27:41.388Z,78.12
2017-12-31T01:28:41.385Z,78.41
2017-12-31T01:29:41.382Z,80.22
2017-12-31T01:30:41.380Z,82.21
2017-12-31T01:31:41.378Z,82.31
2017-12-31T01:32:41.376Z,83.84
2017-12-31T01:33:41.374Z,83.84
2017-12-31T01:34:41.375Z,83.26
2017-12-31T01:35:41.369Z,84.41
2017-12-31T01:36:41.366Z,84.79
2017-12-31T01:37:41.366Z,84.41
2017-12-31T01:38:41.372Z,84.03
2017-12-31T01:39:41.359Z,82.98
2017-12-31T01:40:41.360Z,82.07
2017-12-31T01:41:41.355Z,82.41
2017-12-31T01:42:41.351Z,81.02
2017-12-31T01:43:41.349Z,81.36
2017-12-31T01:44:41.345Z,80.12
2017-12-31T01:45:41.344Z,80.02
2017-12-31T01:46:41.340Z,80.02
2017-12-31T01:47:41.340Z,79.78
2017-12-31T01:48:41.336Z,79.64
2017-12-31T01:49:41.334Z,78.12
2017-12-31T01:50:41.331Z,77.45
2017-12-31T01:51:41.329Z,77.36
2017-12-31T01:52:41.326Z,76.50
2017-12-31T01:53:41.324Z,76.03
2017-12-31T01:54:41.370Z,75.55
2017-12-31T01:55:41.319Z,74.50
2017-12-31T01:56:41.316Z,74.79
2017-12-31T01:57:41.313Z,74.79
2017-12-31T01:58:41.311Z,76.69
2017-12-31T01:59:41.308Z,76.50
2017-12-31T02:00:41.306Z,76.03
2017-12-31T02:01:41.303Z,75.36
2017-12-31T02:02:41.301Z,76.03
2017-12-31T02:03:41.299Z,76.40
2017-12-31T02:04:41.294Z,75.64
2017-12-31T02:05:41.293Z,75.93
2017-12-31T02:06:41.290Z,76.12
2017-12-31T02:07:41.288Z,76.50
2017-12-31T02:08:41.285Z,75.84
2017-12-31T02:09:41.282Z,75.16
2017-12-31T02:10:41.279Z,74.60
2017-12-31T02:11:41.277Z,74.60
2017-12-31T02:12:41.274Z,74.31
2017-12-31T02:13:41.272Z,73.74
2017-12-31T02:14:41.270Z,73.93
2017-12-31T02:15:41.268Z,73.07
2017-12-31T02:16:41.264Z,72.97
2017-12-31T02:17:41.261Z,72.60
2017-12-31T02:18:41.259Z,71.73
2017-12-31T02:19:41.257Z,70.50
2017-12-31T02:20:41.254Z,70.40
2017-12-31T02:21:41.251Z,68.78
2017-12-31T02:22:41.248Z,68.78
2017-12-31T02:23:41.250Z,67.74
2017-12-31T02:24:41.243Z,66.97
2017-12-31T02:25:41.241Z,65.73
2017-12-31T02:26:41.238Z,65.92
2017-12-31T02:27:41.236Z,65.26
2017-12-31T02:28:41.233Z,64.31
2017-12-31T02:29:41.231Z,63.17
2017-12-31T02:30:41.228Z,63.17
2017-12-31T02:31:41.225Z,61.83
2017-12-31T02:32:41.223Z,62.12
2017-12-31T02:33:41.229Z,60.97
2017-12-31T02:34:41.227Z,60.18
2017-12-31T02:35:41.215Z,59.74
2017-12-31T02:36:41.219Z,59.32
2017-12-31T02:37:41.211Z,58.94
2017-12-31T02:38:41.208Z,58.75
2017-12-31T02:39:41.205Z,58.47
2017-12-31T02:40:41.202Z,57.13
2017-12-31T02:41:41.200Z,57.13
2017-12-31T02:42:41.200Z,56.56
2017-12-31T02:43:41.195Z,56.11
2017-12-31T02:44:41.191Z,56.11
2017-12-31T02:45:41.189Z,55.90
2017-12-31T02:46:41.186Z,55.80
2017-12-31T02:47:41.184Z,55.99
2017-12-31T02:48:41.181Z,56.94
2017-12-31T02:49:41.179Z,56.94
2017-12-31T02:50:41.176Z,56.27
2017-12-31T02:51:41.174Z,56.46
2017-12-31T02:52:41.170Z,55.90
2017-12-31T02:53:41.169Z,55.99
2017-12-31T02:54:41.166Z,55.90
2017-12-31T02:55:41.164Z,56.09
2017-12-31T02:56:41.160Z,55.70
2017-12-31T02:57:41.157Z,55.22
2017-12-31T02:58:41.155Z,55.13
2017-12-31T02:59:41.152Z,55.13
2017-12-31T03:00:41.149Z,54.18
2017-12-31T03:01:41.149Z,53.52
2017-12-31T03:02:41.146Z,53.61
2017-12-31T03:03:41.142Z,53.13
2017-12-31T03:04:41.139Z,52.47
2017-12-31T03:05:41.137Z,52.47
2017-12-31T03:06:41.135Z,52.28
2017-12-31T03:07:41.132Z,52.09
2017-12-31T03:08:41.129Z,51.89
2017-12-31T03:09:41.126Z,51.80
2017-12-31T03:10:41.126Z,51.61
2017-12-31T03:11:41.131Z,51.04
2017-12-31T03:12:41.118Z,51.70
2017-12-31T03:13:41.116Z,51.04
2017-12-31T03:14:41.114Z,51.23
2017-12-31T03:15:41.112Z,51.04
2017-12-31T03:16:41.108Z,51.04
2017-12-31T03:17:41.108Z,50.66
2017-12-31T03:18:41.105Z,50.75
2017-12-31T03:19:41.103Z,50.56
2017-12-31T03:20:41.098Z,50.56
2017-12-31T03:21:41.099Z,50.27
2017-12-31T03:22:41.094Z,50.09
2017-12-31T03:23:41.093Z,49.42
2017-12-31T03:24:41.090Z,49.51
2017-12-31T03:25:41.086Z,49.32
2017-12-31T03:26:41.085Z,49.13
2017-12-31T03:27:41.083Z,48.85
2017-12-31T03:28:41.080Z,48.94
2017-12-31T03:29:41.079Z,48.94
2017-12-31T03:30:41.076Z,48.56
2017-12-31T03:31:41.073Z,49.04
2017-12-31T03:32:41.070Z,48.66
2017-12-31T03:33:41.068Z,48.66
2017-12-31T03:34:41.066Z,48.85
2017-12-31T03:35:41.063Z,48.37
2017-12-31T03:36:41.063Z,48.56
2017-12-31T03:37:41.059Z,48.47
2017-12-31T03:38:41.056Z,48.75
2017-12-31T03:39:41.057Z,48.18
2017-12-31T03:40:41.051Z,48.18
2017-12-31T03:41:41.049Z,48.18
2017-12-31T03:42:41.047Z,48.16
2017-12-31T03:43:41.044Z,48.08
2017-12-31T03:44:41.041Z,48.18
2017-12-31T03:45:41.039Z,48.27
2017-12-31T03:46:41.037Z,47.99
2017-12-31T03:47:41.035Z,48.18
2017-12-31T03:48:41.032Z,47.99
2017-12-31T03:49:41.030Z,48.08
2017-12-31T03:50:41.027Z,48.47
2017-12-31T03:51:41.024Z,48.37
2017-12-31T03:52:41.021Z,48.37
2017-12-31T03:53:41.019Z,48.47
2017-12-31T03:54:41.017Z,48.94
2017-12-31T03:55:41.014Z,48.75
2017-12-31T03:56:41.012Z,48.85
2017-12-31T03:57:41.009Z,48.94
2017-12-31T03:58:41.006Z,49.42
2017-12-31T03:59:41.004Z,49.23
2017-12-31T04:00:41.007Z,49.32
2017-12-31T04:01:40.998Z,49.04
2017-12-31T04:02:40.996Z,49.42
2017-12-31T04:03:40.993Z,49.71
2017-12-31T04:04:40.990Z,49.61
2017-12-31T04:05:40.988Z,50.27
2017-12-31T04:06:40.985Z,50.18
2017-12-31T04:07:40.982Z,50.27
2017-12-31T04:08:40.980Z,50.56
2017-12-31T04:09:40.977Z,50.75
2017-12-31T04:10:40.974Z,50.66
2017-12-31T04:11:40.971Z,51.23
2017-12-31T04:12:40.968Z,51.42
2017-12-31T04:13:40.965Z,51.61
2017-12-31T04:14:40.963Z,51.61
2017-12-31T04:15:40.961Z,51.70
2017-12-31T04:16:40.957Z,51.32
2017-12-31T04:17:40.954Z,52.18
2017-12-31T04:18:40.952Z,52.18
2017-12-31T04:19:40.954Z,52.37
2017-12-31T04:20:40.946Z,52.75
2017-12-31T04:21:40.943Z,52.94
2017-12-31T04:22:40.941Z,53.23
2017-12-31T04:23:40.938Z,53.80
2017-12-31T04:24:40.936Z,53.80
2017-12-31T04:25:40.935Z,53.99
2017-12-31T04:26:40.931Z,53.99
2017-12-31T04:27:40.927Z,54.72
2017-12-31T04:28:40.925Z,55.04
2017-12-31T04:29:40.922Z,54.85
2017-12-31T04:30:40.919Z,55.61
2017-12-31T04:31:40.916Z,55.51
2017-12-31T04:32:40.913Z,55.39
2017-12-31T04:33:40.910Z,55.49
2017-12-31T04:34:40.908Z,56.46
2017-12-31T04:35:40.905Z,56.18
2017-12-31T04:36:40.902Z,56.44
2017-12-31T04:37:40.903Z,56.56
2017-12-31T04:38:40.897Z,56.85
2017-12-31T04:39:40.894Z,57.42
2017-12-31T04:40:40.891Z,57.60
2017-12-31T04:41:40.888Z,57.42
2017-12-31T04:42:40.886Z,57.80
2017-12-31T04:43:40.883Z,58.65
2017-12-31T04:44:40.879Z,58.75
2017-12-31T04:45:40.878Z,58.65
2017-12-31T04:46:40.876Z,58.75
2017-12-31T04:47:40.872Z,59.03
2017-12-31T04:48:40.869Z,59.61
2017-12-31T04:49:40.874Z,59.51
2017-12-31T04:50:40.863Z,59.51
2017-12-31T04:51:40.860Z,60.37
2017-12-31T04:52:40.856Z,60.08
2017-12-31T04:53:40.854Z,60.37
2017-12-31T04:54:40.855Z,60.18
2017-12-31T04:55:40.849Z,60.85
2017-12-31T04:56:40.846Z,61.22
2017-12-31T04:57:40.843Z,61.13
2017-12-31T04:58:40.842Z,61.04
2017-12-31T04:59:40.841Z,61.61
2017-12-31T05:00:40.834Z,61.70
2017-12-31T05:01:40.832Z,62.46
2017-12-31T05:02:40.831Z,62.37
2017-12-31T05:03:40.828Z,62.27
2017-12-31T05:04:40.824Z,62.65
2017-12-31T05:05:40.821Z,63.13
2017-12-31T05:06:40.819Z,62.85
2017-12-31T05:07:40.817Z,63.04
2017-12-31T05:08:40.813Z,63.04
2017-12-31T05:09:40.810Z,63.60
2017-12-31T05:10:40.808Z,63.60
2017-12-31T05:11:40.806Z,64.08
2017-12-31T05:12:40.803Z,63.70
2017-12-31T05:13:40.798Z,63.99
2017-12-31T05:14:40.797Z,64.08
2017-12-31T05:15:40.794Z,64.37
2017-12-31T05:16:40.791Z,64.75
2017-12-31T05:17:40.789Z,64.84
2017-12-31T05:18:40.787Z,64.87
2017-12-31T05:19:40.784Z,65.16
2017-12-31T05:20:40.780Z,65.26
2017-12-31T05:21:40.780Z,65.26
2017-12-31T05:22:40.774Z,64.97
2017-12-31T05:23:40.773Z,65.55
2017-12-31T05:24:40.768Z,65.55
2017-12-31T05:25:40.767Z,65.36
2017-12-31T05:26:40.764Z,65.45
2017-12-31T05:27:40.762Z,65.64
2017-12-31T05:28:40.759Z,65.73
2017-12-31T05:29:40.756Z,66.02
2017-12-31T05:30:40.752Z,65.92
2017-12-31T05:31:40.750Z,66.59
2017-12-31T05:32:40.747Z,66.44
2017-12-31T05:33:40.745Z,66.91
2017-12-31T05:34:40.742Z,66.72
2017-12-31T05:35:40.742Z,67.20
2017-12-31T05:36:40.736Z,67.29
2017-12-31T05:37:40.734Z,68.53
2017-12-31T05:38:40.732Z,68.72
2017-12-31T05:39:40.728Z,69.10
2017-12-31T05:40:40.726Z,68.91
2017-12-31T05:41:40.723Z,69.48
2017-12-31T05:42:40.722Z,69.48
2017-12-31T05:43:40.717Z,69.39
2017-12-31T05:44:40.716Z,70.15
2017-12-31T05:45:40.712Z,70.06
2017-12-31T05:46:40.709Z,70.47
2017-12-31T05:47:40.707Z,70.72
2017-12-31T05:48:40.704Z,70.67
2017-12-31T05:49:40.701Z,70.82
2017-12-31T05:50:40.700Z,70.63
2017-12-31T05:51:40.697Z,69.77
2017-12-31T05:52:40.695Z,71.04
2017-12-31T05:53:40.691Z,71.52
2017-12-31T05:54:40.689Z,71.23
2017-12-31T05:55:40.686Z,71.23
2017-12-31T05:56:40.683Z,71.72
2017-12-31T05:57:40.681Z,71.81
2017-12-31T05:58:40.679Z,72.38
2017-12-31T05:59:40.677Z,72.76
2017-12-31T06:00:40.674Z,73.43
2017-12-31T06:01:40.671Z,73.81
2017-12-31T06:02:40.669Z,73.81
2017-12-31T06:03:40.668Z,73.14
2017-12-31T06:04:40.662Z,73.14
2017-12-31T06:05:40.661Z,73.33
2017-12-31T06:06:40.659Z,72.67
2017-12-31T06:07:40.657Z,72.19
2017-12-31T06:08:40.653Z,71.72
2017-12-31T06:09:40.653Z,71.72
2017-12-31T06:10:40.649Z,71.43
2017-12-31T06:11:40.647Z,70.67
2017-12-31T06:12:40.642Z,70.95
2017-12-31T06:13:40.641Z,70.47
2017-12-31T06:14:40.639Z,70.09
2017-12-31T06:15:40.637Z,70.57
2017-12-31T06:16:40.635Z,70.28
2017-12-31T06:17:40.631Z,70.00
2017-12-31T06:18:40.630Z,71.14
2017-12-31T06:19:40.630Z,70.86
2017-12-31T06:20:40.623Z,70.76
2017-12-31T06:21:40.624Z,71.72
2017-12-31T06:22:40.620Z,71.43
2017-12-31T06:23:40.618Z,71.04
2017-12-31T06:24:40.614Z,71.23
2017-12-31T06:25:40.612Z,71.23
2017-12-31T06:26:40.610Z,71.23
2017-12-31T06:27:40.607Z,71.14
2017-12-31T06:28:40.605Z,70.86
2017-12-31T06:29:40.605Z,70.47
2017-12-31T06:30:40.601Z,69.90
2017-12-31T06:31:40.598Z,69.81
2017-12-31T06:32:40.595Z,69.43
2017-12-31T06:33:40.599Z,68.95
2017-12-31T06:34:40.591Z,68.95
2017-12-31T06:35:40.589Z,69.14
2017-12-31T06:36:40.585Z,68.85
2017-12-31T06:37:40.584Z,68.95
2017-12-31T06:38:40.581Z,69.04
2017-12-31T06:39:40.578Z,69.23
2017-12-31T06:40:40.577Z,68.76
2017-12-31T06:41:40.574Z,68.57
2017-12-31T06:42:40.573Z,68.47
2017-12-31T06:43:40.570Z,68.47
2017-12-31T06:44:40.567Z,69.14
2017-12-31T06:45:40.564Z,69.04
2017-12-31T06:46:40.562Z,68.95
2017-12-31T06:47:40.560Z,69.14
2017-12-31T06:48:40.557Z,70.00
2017-12-31T06:49:40.555Z,71.23
2017-12-31T06:50:40.554Z,70.95
2017-12-31T06:51:40.550Z,71.23
2017-12-31T06:52:40.548Z,71.43
2017-12-31T06:53:40.546Z,72.28
2017-12-31T06:54:40.544Z,71.91
2017-12-31T06:55:40.542Z,72.38
2017-12-31T06:56:40.538Z,72.76
2017-12-31T06:57:40.536Z,73.91
2017-12-31T06:58:40.544Z,75.15
2017-12-31T06:59:40.531Z,76.29
2017-12-31T07:00:40.528Z,75.34
2017-12-31T07:01:40.527Z,75.34
2017-12-31T07:02:40.524Z,74.86
2017-12-31T07:03:40.522Z,74.77
2017-12-31T07:04:40.520Z,75.62
2017-12-31T07:05:40.518Z,76.10
2017-12-31T07:06:40.515Z,76.67
2017-12-31T07:07:40.512Z,76.39
2017-12-31T07:08:40.509Z,76.01
2017-12-31T07:09:40.507Z,76.20
2017-12-31T07:10:40.505Z,76.10
2017-12-31T07:11:40.503Z,77.15
2017-12-31T07:12:40.499Z,77.06
2017-12-31T07:13:40.499Z,78.01
2017-12-31T07:14:40.496Z,78.20
2017-12-31T07:15:40.494Z,77.44
2017-12-31T07:16:40.491Z,77.53
2017-12-31T07:17:40.497Z,78.01
2017-12-31T07:18:40.486Z,79.72
2017-12-31T07:19:40.495Z,80.58
2017-12-31T07:20:40.483Z,80.96
2017-12-31T07:21:40.481Z,81.92
2017-12-31T07:22:40.478Z,81.96
2017-12-31T07:23:40.477Z,83.25
2017-12-31T07:24:40.474Z,83.35
2017-12-31T07:25:40.471Z,81.92
2017-12-31T07:26:40.469Z,83.64
2017-12-31T07:27:40.467Z,82.97
2017-12-31T07:28:40.465Z,83.87
2017-12-31T07:29:40.464Z,83.67
2017-12-31T07:30:40.463Z,83.01
2017-12-31T07:31:40.459Z,82.43
2017-12-31T07:32:40.455Z,83.01
2017-12-31T07:33:40.453Z,83.01
2017-12-31T07:34:40.452Z,81.82
2017-12-31T07:35:40.450Z,83.67
2017-12-31T07:36:40.447Z,84.63
2017-12-31T07:37:40.445Z,85.30
2017-12-31T07:38:40.444Z,87.11
2017-12-31T07:39:40.442Z,87.40
2017-12-31T07:40:40.440Z,87.78
2017-12-31T07:41:40.440Z,86.54
2017-12-31T07:42:40.435Z,86.35
2017-12-31T07:43:40.435Z,86.54
2017-12-31T07:44:40.431Z,88.64
2017-12-31T07:45:40.428Z,88.64
2017-12-31T07:46:40.428Z,88.45
2017-12-31T07:47:40.432Z,88.26
2017-12-31T07:48:40.421Z,88.73
2017-12-31T07:49:40.420Z,88.07
2017-12-31T07:50:40.420Z,88.64
2017-12-31T07:51:40.417Z,87.21
2017-12-31T07:52:40.413Z,86.82
2017-12-31T07:53:40.412Z,86.82
2017-12-31T07:54:40.411Z,86.92
2017-12-31T07:55:40.407Z,87.49
2017-12-31T07:56:40.405Z,87.78
2017-12-31T07:57:40.405Z,87.68
2017-12-31T07:58:40.401Z,87.21
2017-12-31T07:59:40.399Z,85.77
2017-12-31T08:00:40.398Z,87.21
2017-12-31T08:01:40.396Z,87.78
2017-12-31T08:02:40.402Z,87.30
2017-12-31T08:03:40.392Z,86.92
2017-12-31T08:04:40.390Z,87.11
2017-12-31T08:05:40.389Z,85.21
2017-12-31T08:06:40.386Z,84.34
2017-12-31T08:07:40.384Z,83.01
2017-12-31T08:08:40.382Z,83.39
2017-12-31T08:09:40.380Z,82.82
2017-12-31T08:10:40.378Z,82.06
2017-12-31T08:11:40.376Z,80.15
2017-12-31T08:12:40.375Z,80.05
2017-12-31T08:13:40.372Z,80.91
2017-12-31T08:14:40.370Z,80.24
2017-12-31T08:15:40.369Z,79.91
2017-12-31T08:16:40.366Z,78.30
2017-12-31T08:17:40.363Z,78.05
2017-12-31T08:18:40.370Z,78.10
2017-12-31T08:19:40.362Z,78.30
2017-12-31T08:20:40.358Z,77.91
2017-12-31T08:21:40.355Z,79.19
2017-12-31T08:22:40.353Z,79.38
2017-12-31T08:23:40.352Z,78.96
2017-12-31T08:24:40.349Z,78.81
2017-12-31T08:25:40.349Z,78.10
2017-12-31T08:26:40.346Z,78.49
2017-12-31T08:27:40.345Z,80.81
2017-12-31T08:28:40.340Z,80.53
2017-12-31T08:29:40.340Z,79.35
2017-12-31T08:30:40.337Z,79.35
2017-12-31T08:31:40.335Z,79.15
2017-12-31T08:32:40.332Z,77.38
2017-12-31T08:33:40.330Z,76.29
2017-12-31T08:34:40.328Z,76.10
2017-12-31T08:35:40.327Z,75.91
2017-12-31T08:36:40.326Z,74.86
2017-12-31T08:37:40.325Z,74.86
2017-12-31T08:38:40.320Z,74.96
2017-12-31T08:39:40.317Z,74.10
2017-12-31T08:40:40.315Z,73.72
2017-12-31T08:41:40.313Z,73.33
2017-12-31T08:42:40.311Z,73.33
2017-12-31T08:43:40.312Z,72.19
2017-12-31T08:44:40.327Z,72.19
2017-12-31T08:45:40.304Z,71.81
2017-12-31T08:46:40.302Z,71.72
2017-12-31T08:47:40.301Z,72.00
2017-12-31T08:48:40.298Z,71.23
2017-12-31T08:49:40.297Z,71.04
2017-12-31T08:50:40.293Z,71.04
2017-12-31T08:51:40.293Z,71.72
2017-12-31T08:52:40.290Z,71.33
2017-12-31T08:53:40.287Z,72.96
2017-12-31T08:54:40.284Z,73.14
2017-12-31T08:55:40.283Z,73.52
2017-12-31T08:56:40.287Z,73.33
2017-12-31T08:57:40.279Z,75.43
2017-12-31T08:58:40.277Z,76.39
2017-12-31T08:59:40.275Z,77.82
2017-12-31T09:00:40.276Z,78.49
2017-12-31T09:01:40.271Z,80.20
2017-12-31T09:02:40.270Z,82.06
2017-12-31T09:03:40.268Z,81.77
2017-12-31T09:04:40.265Z,82.24
2017-12-31T09:05:40.262Z,83.77
2017-12-31T09:06:40.261Z,85.39
2017-12-31T09:07:40.259Z,84.44
2017-12-31T09:08:40.257Z,86.92
2017-12-31T09:09:40.255Z,88.16
2017-12-31T09:10:40.258Z,87.30
2017-12-31T09:11:40.252Z,88.73
2017-12-31T09:12:40.249Z,89.12
2017-12-31T09:13:40.247Z,88.26
2017-12-31T09:14:40.246Z,90.17
2017-12-31T09:15:40.246Z,88.73
2017-12-31T09:16:40.241Z,88.73
2017-12-31T09:17:40.246Z,88.83
2017-12-31T09:18:40.238Z,89.50
2017-12-31T09:19:40.236Z,89.97
2017-12-31T09:20:40.235Z,90.07
2017-12-31T09:21:40.233Z,90.93
2017-12-31T09:22:40.233Z,89.12
2017-12-31T09:23:40.229Z,88.83
2017-12-31T09:24:40.230Z,90.17
2017-12-31T09:25:40.226Z,90.07
2017-12-31T09:26:40.223Z,89.97
2017-12-31T09:27:40.225Z,88.73
2017-12-31T09:28:40.220Z,88.83
2017-12-31T09:29:40.219Z,87.78
2017-12-31T09:30:40.223Z,87.02
2017-12-31T09:31:40.217Z,86.82
2017-12-31T09:32:40.214Z,86.16
2017-12-31T09:33:40.213Z,86.54
2017-12-31T09:34:40.210Z,84.82
2017-12-31T09:35:40.209Z,84.63
2017-12-31T09:36:40.207Z,84.63
2017-12-31T09:37:40.204Z,84.16
2017-12-31T09:38:40.205Z,83.01
2017-12-31T09:39:40.202Z,82.91
2017-12-31T09:40:40.200Z,81.86
2017-12-31T09:41:40.200Z,81.86
2017-12-31T09:42:40.197Z,82.15
2017-12-31T09:43:40.195Z,82.82
2017-12-31T09:44:40.194Z,83.67
2017-12-31T09:45:40.193Z,83.39
2017-12-31T09:46:40.190Z,82.24
2017-12-31T09:47:40.190Z,82.24
2017-12-31T09:48:40.188Z,82.15
2017-12-31T09:49:40.185Z,84.16
2017-12-31T09:50:40.187Z,83.77
2017-12-31T09:51:40.182Z,84.53
2017-12-31T09:52:40.180Z,83.87
2017-12-31T09:53:40.178Z,84.06
2017-12-31T09:54:40.177Z,83.58
2017-12-31T09:55:40.176Z,82.91
2017-12-31T09:56:40.173Z,82.91
2017-12-31T09:57:40.171Z,83.01
2017-12-31T09:58:40.170Z,83.11
2017-12-31T09:59:40.175Z,83.01
2017-12-31T10:00:40.208Z,82.91
2017-12-31T10:01:40.164Z,85.68
2017-12-31T10:02:40.164Z,85.87
2017-12-31T10:03:40.162Z,85.77
2017-12-31T10:04:40.160Z,87.02
2017-12-31T10:05:40.158Z,86.92
2017-12-31T10:06:40.157Z,87.02
2017-12-31T10:07:40.156Z,87.30
2017-12-31T10:08:40.154Z,89.40
2017-12-31T10:09:40.152Z,88.97
2017-12-31T10:10:40.150Z,90.40
2017-12-31T10:11:40.151Z,91.45
2017-12-31T10:12:40.146Z,91.93
2017-12-31T10:13:40.147Z,91.74
2017-12-31T10:14:40.147Z,90.97
2017-12-31T10:15:40.142Z,91.36
2017-12-31T10:16:40.140Z,91.64
2017-12-31T10:17:40.139Z,91.07
2017-12-31T10:18:40.140Z,92.02
2017-12-31T10:19:40.136Z,91.16
2017-12-31T10:20:40.135Z,92.02
2017-12-31T10:21:40.132Z,91.93
2017-12-31T10:22:40.132Z,91.74
2017-12-31T10:23:40.129Z,91.83
2017-12-31T10:24:40.127Z,93.65
2017-12-31T10:25:40.133Z,92.21
2017-12-31T10:26:40.125Z,92.31
2017-12-31T10:27:40.123Z,93.26
2017-12-31T10:28:40.121Z,93.46
2017-12-31T10:29:40.123Z,93.46
2017-12-31T10:30:40.118Z,93.36
2017-12-31T10:31:40.117Z,92.79
2017-12-31T10:32:40.119Z,91.93
2017-12-31T10:33:40.114Z,92.31
2017-12-31T10:34:40.112Z,92.50
2017-12-31T10:35:40.111Z,93.26
2017-12-31T10:36:40.108Z,94.03
2017-12-31T10:37:40.107Z,95.22
2017-12-31T10:38:40.107Z,94.36
2017-12-31T10:39:40.106Z,95.03
2017-12-31T10:40:40.103Z,94.84
2017-12-31T10:41:40.102Z,96.08
2017-12-31T10:42:40.101Z,96.27
2017-12-31T10:43:40.100Z,96.08
2017-12-31T10:44:40.098Z,97.66
2017-12-31T10:45:40.097Z,97.08
2017-12-31T10:46:40.096Z,96.80
2017-12-31T10:47:40.095Z,96.61
2017-12-31T10:48:40.094Z,97.75
2017-12-31T10:49:40.092Z,96.89
2017-12-31T10:50:40.092Z,96.22
2017-12-31T10:51:40.092Z,96.03
2017-12-31T10:52:40.088Z,95.98
2017-12-31T10:53:40.089Z,96.27
2017-12-31T10:54:40.088Z,95.98
2017-12-31T10:55:40.087Z,96.61
2017-12-31T10:56:40.085Z,96.08
2017-12-31T10:57:40.085Z,96.51
2017-12-31T10:58:40.084Z,97.56
2017-12-31T10:59:40.085Z,96.03
2017-12-31T11:00:40.082Z,96.13
2017-12-31T11:01:40.081Z,96.51
2017-12-31T11:02:40.082Z,96.80
2017-12-31T11:03:40.080Z,96.51
2017-12-31T11:04:40.085Z,97.47
2017-12-31T11:05:40.079Z,96.51
2017-12-31T11:06:40.078Z,96.13
2017-12-31T11:07:40.077Z,96.42
2017-12-31T11:08:40.078Z,96.70
2017-12-31T11:09:40.075Z,96.42
2017-12-31T11:10:40.075Z,96.89
2017-12-31T11:11:40.075Z,96.80
2017-12-31T11:12:40.074Z,96.89
2017-12-31T11:13:40.075Z,96.61
2017-12-31T11:14:40.075Z,97.37
2017-12-31T11:15:40.073Z,96.32
2017-12-31T11:16:40.071Z,96.70
2017-12-31T11:17:40.071Z,96.42
2017-12-31T11:18:40.070Z,97.75
2017-12-31T11:19:40.071Z,97.18
2017-12-31T11:20:40.070Z,98.57
2017-12-31T11:21:40.069Z,97.33
2017-12-31T11:22:40.073Z,97.75
2017-12-31T11:23:40.069Z,96.80
2017-12-31T11:24:40.067Z,97.28
2017-12-31T11:25:40.068Z,96.13
2017-12-31T11:26:40.068Z,96.61
2017-12-31T11:27:40.066Z,97.37
2017-12-31T11:28:40.115Z,98.47
2017-12-31T11:29:40.065Z,99.67
2017-12-31T11:30:40.065Z,99.57
2017-12-31T11:31:40.064Z,99.62
2017-12-31T11:32:40.064Z,98.66
2017-12-31T11:33:40.065Z,99.33
2017-12-31T11:34:40.064Z,98.95
2017-12-31T11:35:40.115Z,99.57
2017-12-31T11:36:40.063Z,98.57
2017-12-31T11:37:40.064Z,99.24
2017-12-31T11:38:40.064Z,98.28
2017-12-31T11:39:40.066Z,98.75
2017-12-31T11:40:40.064Z,98.75
2017-12-31T11:41:40.064Z,99.76
2017-12-31T11:42:40.063Z,99.19
2017-12-31T11:43:40.065Z,98.52
2017-12-31T11:44:40.064Z,99.57
2017-12-31T11:45:40.064Z,99.99
2017-12-31T11:46:40.065Z,99.76
2017-12-31T11:47:40.064Z,98.61
2017-12-31T11:48:40.065Z,98.90
2017-12-31T11:49:40.065Z,98.61
2017-12-31T11:50:40.065Z,98.90
2017-12-31T11:51:40.065Z,99.48
2017-12-31T11:52:40.066Z,99.29
2017-12-31T11:53:40.066Z,98.81
2017-12-31T11:54:40.065Z,98.81
2017-12-31T11:55:40.066Z,99.19
2017-12-31T11:56:40.065Z,98.57
2017-12-31T11:57:40.067Z,98.61
2017-12-31T11:58:40.067Z,98.18
2017-12-31T11:59:40.067Z,99.24
2017-12-31T12:00:40.070Z,98.66
2017-12-31T12:01:40.067Z,98.28
2017-12-31T12:02:40.069Z,98.57
2017-12-31T12:03:40.068Z,98.66
2017-12-31T12:04:40.068Z,98.75
2017-12-31T12:05:40.070Z,98.57
2017-12-31T12:06:40.069Z,98.28
2017-12-31T12:07:40.071Z,98.47
2017-12-31T12:08:40.069Z,98.66
2017-12-31T12:09:40.072Z,98.66
2017-12-31T12:10:40.071Z,98.66
2017-12-31T12:11:40.076Z,98.09
2017-12-31T12:12:40.071Z,98.57
2017-12-31T12:13:40.070Z,98.28
2017-12-31T12:14:40.071Z,98.18
2017-12-31T12:15:40.071Z,98.66
2017-12-31T12:16:40.070Z,97.99
2017-12-31T12:17:40.071Z,98.28
2017-12-31T12:18:40.071Z,98.18
2017-12-31T12:19:40.071Z,98.47
2017-12-31T12:20:40.072Z,98.18
2017-12-31T12:21:40.070Z,98.47
2017-12-31T12:22:40.072Z,97.80
2017-12-31T12:23:40.072Z,99.04
2017-12-31T12:24:40.072Z,98.66
2017-12-31T12:25:40.072Z,99.33
2017-12-31T12:26:40.071Z,98.38
2017-12-31T12:27:40.073Z,98.18
2017-12-31T12:28:40.070Z,99.24
2017-12-31T12:29:40.071Z,98.38
2017-12-31T12:30:40.072Z,98.28
2017-12-31T12:31:40.071Z,97.99
2017-12-31T12:32:40.072Z,99.43
2017-12-31T12:33:40.072Z,98.66
2017-12-31T12:34:40.072Z,98.38
2017-12-31T12:35:40.072Z,98.18
2017-12-31T12:36:40.072Z,98.85
2017-12-31T12:37:40.071Z,99.52
2017-12-31T12:38:40.072Z,98.47
2017-12-31T12:39:40.072Z,99.24
2017-12-31T12:40:40.072Z,98.75
2017-12-31T12:41:40.070Z,99.33
2017-12-31T12:42:40.072Z,99.43
2017-12-31T12:43:40.074Z,98.57
2017-12-31T12:44:40.070Z,98.28
2017-12-31T12:45:40.071Z,98.57
2017-12-31T12:46:40.070Z,99.81
2017-12-31T12:47:40.070Z,98.47
2017-12-31T12:48:40.071Z,98.38
2017-12-31T12:49:40.073Z,99.67
2017-12-31T12:50:40.072Z,98.38
2017-12-31T12:51:40.071Z,98.61
2017-12-31T12:52:40.071Z,98.66